Aroma, Missouri
Current Conditions -  °F | °C
As of 5:55 PM on Saturday 22 Nov 2014 (Local Time) from KHFJ Reporting Station
Scattered Clouds Scattered Clouds  
Wind Chill: 11°   Ceiling: Unl
Heat Index: 11°   Visibility: 10mi
Dew Point: 10°   Wind: 8mph
Humidity: 94%   Direction: 150°SSE
Pressure: 29.85"   Gusts: NA
Location:  36.8998°N, 94.263°W
Report Text: KHFJ 222355Z AUTO 15007KT 10SM SCT014 11/10 A2985 RMK AO2
Loading
Personal Weather Stations






























Interactive Weather Map New forecast layout! Learn more

10-Day Weather Forecast

Advertisements
Track Severe Weather on mobile